sensor_id;sensor_type;location;lat;lon;timestamp;P1;durP1;ratioP1;P2;durP2;ratioP2
10452;SDS011;5274;51.992;8.518;2023-04-21T00:01:04;42.47;;;34.28;;
10452;SDS011;5274;51.992;8.518;2023-04-21T00:03:33;40.33;;;35.28;;
10452;SDS011;5274;51.992;8.518;2023-04-21T00:06:02;40.78;;;36.05;;
10452;SDS011;5274;51.992;8.518;2023-04-21T00:08:30;38.20;;;34.03;;
10452;SDS011;5274;51.992;8.518;2023-04-21T00:10:56;38.58;;;34.60;;
10452;SDS011;5274;51.992;8.518;2023-04-21T00:13:22;42.13;;;36.78;;
10452;SDS011;5274;51.992;8.518;2023-04-21T00:15:48;41.35;;;35.38;;
10452;SDS011;5274;51.992;8.518;2023-04-21T00:18:15;42.83;;;34.58;;
10452;SDS011;5274;51.992;8.518;2023-04-21T00:20:41;41.72;;;35.42;;
10452;SDS011;5274;51.992;8.518;2023-04-21T00:23:08;39.10;;;34.90;;
10452;SDS011;5274;51.992;8.518;2023-04-21T00:25:37;42.33;;;34.83;;
10452;SDS011;5274;51.992;8.518;2023-04-21T00:28:03;38.28;;;34.15;;
10452;SDS011;5274;51.992;8.518;2023-04-21T00:30:30;42.67;;;36.42;;
10452;SDS011;5274;51.992;8.518;2023-04-21T00:32:55;41.38;;;36.83;;
10452;SDS011;5274;51.992;8.518;2023-04-21T00:35:21;44.65;;;37.50;;
10452;SDS011;5274;51.992;8.518;2023-04-21T00:37:47;44.40;;;37.05;;
10452;SDS011;5274;51.992;8.518;2023-04-21T00:40:14;44.22;;;37.40;;
10452;SDS011;5274;51.992;8.518;2023-04-21T00:42:40;40.17;;;35.78;;
10452;SDS011;5274;51.992;8.518;2023-04-21T00:45:06;41.65;;;35.55;;
10452;SDS011;5274;51.992;8.518;2023-04-21T00:47:32;43.65;;;36.75;;
10452;SDS011;5274;51.992;8.518;2023-04-21T00:49:58;41.33;;;36.05;;
10452;SDS011;5274;51.992;8.518;2023-04-21T00:52:24;45.03;;;36.40;;
10452;SDS011;5274;51.992;8.518;2023-04-21T00:54:51;42.08;;;36.00;;
10452;SDS011;5274;51.992;8.518;2023-04-21T00:57:17;44.08;;;37.28;;
10452;SDS011;5274;51.992;8.518;2023-04-21T00:59:43;41.42;;;36.92;;
10452;SDS011;5274;51.992;8.518;2023-04-21T01:02:09;44.00;;;36.60;;
10452;SDS011;5274;51.992;8.518;2023-04-21T01:04:35;47.00;;;37.05;;
10452;SDS011;5274;51.992;8.518;2023-04-21T01:07:04;46.65;;;38.08;;
10452;SDS011;5274;51.992;8.518;2023-04-21T01:09:30;44.40;;;36.35;;
10452;SDS011;5274;51.992;8.518;2023-04-21T01:12:00;42.40;;;37.78;;
10452;SDS011;5274;51.992;8.518;2023-04-21T01:14:27;41.17;;;36.72;;
10452;SDS011;5274;51.992;8.518;2023-04-21T01:16:53;44.30;;;36.15;;
10452;SDS011;5274;51.992;8.518;2023-04-21T01:19:19;45.38;;;34.95;;
10452;SDS011;5274;51.992;8.518;2023-04-21T01:21:45;43.08;;;37.45;;
10452;SDS011;5274;51.992;8.518;2023-04-21T01:24:11;43.92;;;36.97;;
10452;SDS011;5274;51.992;8.518;2023-04-21T01:26:37;46.28;;;37.42;;
10452;SDS011;5274;51.992;8.518;2023-04-21T01:29:03;42.90;;;36.15;;
10452;SDS011;5274;51.992;8.518;2023-04-21T01:31:29;43.35;;;31.02;;
10452;SDS011;5274;51.992;8.518;2023-04-21T01:33:55;37.63;;;29.52;;
10452;SDS011;5274;51.992;8.518;2023-04-21T01:36:21;43.75;;;30.85;;
10452;SDS011;5274;51.992;8.518;2023-04-21T01:38:47;42.28;;;29.85;;
10452;SDS011;5274;51.992;8.518;2023-04-21T01:41:13;37.03;;;30.08;;
10452;SDS011;5274;51.992;8.518;2023-04-21T01:43:39;39.63;;;29.27;;
10452;SDS011;5274;51.992;8.518;2023-04-21T01:46:05;44.80;;;30.08;;
10452;SDS011;5274;51.992;8.518;2023-04-21T01:48:31;37.60;;;28.92;;
10452;SDS011;5274;51.992;8.518;2023-04-21T01:50:57;36.63;;;29.23;;
10452;SDS011;5274;51.992;8.518;2023-04-21T01:53:23;40.78;;;30.52;;
10452;SDS011;5274;51.992;8.518;2023-04-21T01:55:50;40.75;;;30.40;;
10452;SDS011;5274;51.992;8.518;2023-04-21T01:58:16;40.03;;;28.85;;
10452;SDS011;5274;51.992;8.518;2023-04-21T02:00:42;41.17;;;29.45;;
10452;SDS011;5274;51.992;8.518;2023-04-21T02:03:08;38.10;;;28.40;;
10452;SDS011;5274;51.992;8.518;2023-04-21T02:05:34;38.17;;;28.92;;
10452;SDS011;5274;51.992;8.518;2023-04-21T02:08:02;37.05;;;28.02;;
10452;SDS011;5274;51.992;8.518;2023-04-21T02:10:28;38.85;;;29.55;;
10452;SDS011;5274;51.992;8.518;2023-04-21T02:12:54;35.55;;;28.70;;
10452;SDS011;5274;51.992;8.518;2023-04-21T02:15:20;35.00;;;28.75;;
10452;SDS011;5274;51.992;8.518;2023-04-21T02:17:46;35.08;;;28.30;;
10452;SDS011;5274;51.992;8.518;2023-04-21T02:20:12;38.33;;;29.35;;
10452;SDS011;5274;51.992;8.518;2023-04-21T02:22:38;36.50;;;28.55;;
10452;SDS011;5274;51.992;8.518;2023-04-21T02:25:04;37.88;;;33.58;;
10452;SDS011;5274;51.992;8.518;2023-04-21T02:27:30;40.40;;;34.63;;
10452;SDS011;5274;51.992;8.518;2023-04-21T02:29:56;42.58;;;33.42;;
10452;SDS011;5274;51.992;8.518;2023-04-21T02:32:22;39.15;;;33.63;;
10452;SDS011;5274;51.992;8.518;2023-04-21T02:34:48;41.30;;;33.83;;
10452;SDS011;5274;51.992;8.518;2023-04-21T02:37:14;40.58;;;35.40;;
10452;SDS011;5274;51.992;8.518;2023-04-21T02:39:40;38.95;;;34.72;;
10452;SDS011;5274;51.992;8.518;2023-04-21T02:42:07;42.40;;;34.72;;
10452;SDS011;5274;51.992;8.518;2023-04-21T02:44:35;39.97;;;33.83;;
10452;SDS011;5274;51.992;8.518;2023-04-21T02:47:02;39.55;;;35.38;;
10452;SDS011;5274;51.992;8.518;2023-04-21T02:49:28;41.85;;;36.67;;
10452;SDS011;5274;51.992;8.518;2023-04-21T02:51:54;38.38;;;34.28;;
10452;SDS011;5274;51.992;8.518;2023-04-21T02:54:20;38.05;;;34.05;;
10452;SDS011;5274;51.992;8.518;2023-04-21T02:56:46;38.10;;;33.92;;
10452;SDS011;5274;51.992;8.518;2023-04-21T02:59:12;39.60;;;34.85;;
10452;SDS011;5274;51.992;8.518;2023-04-21T03:01:40;40.13;;;35.75;;
10452;SDS011;5274;51.992;8.518;2023-04-21T03:04:06;38.88;;;34.88;;
10452;SDS011;5274;51.992;8.518;2023-04-21T03:06:32;40.13;;;35.95;;
10452;SDS011;5274;51.992;8.518;2023-04-21T03:08:58;39.53;;;35.35;;
10452;SDS011;5274;51.992;8.518;2023-04-21T03:11:24;39.22;;;34.90;;
10452;SDS011;5274;51.992;8.518;2023-04-21T03:13:50;38.92;;;34.58;;
10452;SDS011;5274;51.992;8.518;2023-04-21T03:16:16;38.72;;;34.53;;
10452;SDS011;5274;51.992;8.518;2023-04-21T03:18:41;38.17;;;33.97;;
10452;SDS011;5274;51.992;8.518;2023-04-21T03:21:07;39.05;;;34.80;;
10452;SDS011;5274;51.992;8.518;2023-04-21T03:23:33;37.55;;;32.70;;
10452;SDS011;5274;51.992;8.518;2023-04-21T03:25:59;41.47;;;37.08;;
10452;SDS011;5274;51.992;8.518;2023-04-21T03:28:25;42.05;;;36.17;;
10452;SDS011;5274;51.992;8.518;2023-04-21T03:30:51;44.28;;;37.20;;
10452;SDS011;5274;51.992;8.518;2023-04-21T03:33:17;39.47;;;34.35;;
10452;SDS011;5274;51.992;8.518;2023-04-21T03:35:43;46.65;;;37.40;;
10452;SDS011;5274;51.992;8.518;2023-04-21T03:38:09;41.60;;;35.35;;
10452;SDS011;5274;51.992;8.518;2023-04-21T03:40:35;41.67;;;36.47;;
10452;SDS011;5274;51.992;8.518;2023-04-21T03:43:01;40.35;;;36.05;;
10452;SDS011;5274;51.992;8.518;2023-04-21T03:45:27;39.30;;;34.90;;
10452;SDS011;5274;51.992;8.518;2023-04-21T03:47:53;42.90;;;36.17;;
10452;SDS011;5274;51.992;8.518;2023-04-21T03:50:20;39.90;;;35.70;;
10452;SDS011;5274;51.992;8.518;2023-04-21T03:52:46;43.35;;;36.35;;
10452;SDS011;5274;51.992;8.518;2023-04-21T03:55:12;42.20;;;35.58;;
10452;SDS011;5274;51.992;8.518;2023-04-21T03:57:38;40.95;;;36.58;;
10452;SDS011;5274;51.992;8.518;2023-04-21T04:00:05;42.00;;;34.78;;
10452;SDS011;5274;51.992;8.518;2023-04-21T04:02:33;40.65;;;34.22;;
10452;SDS011;5274;51.992;8.518;2023-04-21T04:04:59;49.85;;;44.70;;
10452;SDS011;5274;51.992;8.518;2023-04-21T04:07:25;51.38;;;46.00;;
10452;SDS011;5274;51.992;8.518;2023-04-21T04:09:50;49.97;;;44.90;;
10452;SDS011;5274;51.992;8.518;2023-04-21T04:12:16;49.17;;;44.20;;
10452;SDS011;5274;51.992;8.518;2023-04-21T04:14:42;52.25;;;47.08;;
10452;SDS011;5274;51.992;8.518;2023-04-21T04:17:08;52.22;;;46.90;;
10452;SDS011;5274;51.992;8.518;2023-04-21T04:19:34;50.88;;;45.78;;
10452;SDS011;5274;51.992;8.518;2023-04-21T04:22:00;50.25;;;45.25;;
10452;SDS011;5274;51.992;8.518;2023-04-21T04:24:26;49.78;;;44.78;;
10452;SDS011;5274;51.992;8.518;2023-04-21T04:26:52;48.28;;;43.25;;
10452;SDS011;5274;51.992;8.518;2023-04-21T04:29:22;46.55;;;41.78;;
10452;SDS011;5274;51.992;8.518;2023-04-21T04:31:51;50.10;;;44.67;;
10452;SDS011;5274;51.992;8.518;2023-04-21T04:34:16;49.78;;;44.67;;
10452;SDS011;5274;51.992;8.518;2023-04-21T04:36:43;50.55;;;45.55;;
10452;SDS011;5274;51.992;8.518;2023-04-21T04:39:09;49.20;;;44.28;;
10452;SDS011;5274;51.992;8.518;2023-04-21T04:41:36;49.33;;;44.38;;
10452;SDS011;5274;51.992;8.518;2023-04-21T04:44:02;51.28;;;45.90;;
10452;SDS011;5274;51.992;8.518;2023-04-21T04:46:29;47.38;;;42.55;;
10452;SDS011;5274;51.992;8.518;2023-04-21T04:48:55;48.10;;;43.47;;
10452;SDS011;5274;51.992;8.518;2023-04-21T04:51:21;48.08;;;43.08;;
10452;SDS011;5274;51.992;8.518;2023-04-21T04:53:47;46.70;;;42.00;;
10452;SDS011;5274;51.992;8.518;2023-04-21T04:56:13;48.88;;;43.88;;
10452;SDS011;5274;51.992;8.518;2023-04-21T04:58:39;55.67;;;50.65;;
10452;SDS011;5274;51.992;8.518;2023-04-21T05:01:15;57.35;;;51.83;;
10452;SDS011;5274;51.992;8.518;2023-04-21T05:03:41;58.33;;;52.65;;
10452;SDS011;5274;51.992;8.518;2023-04-21T05:06:07;56.78;;;51.65;;
10452;SDS011;5274;51.992;8.518;2023-04-21T05:08:33;55.35;;;50.15;;
10452;SDS011;5274;51.992;8.518;2023-04-21T05:10:59;49.92;;;45.10;;
10452;SDS011;5274;51.992;8.518;2023-04-21T05:13:25;49.80;;;44.55;;
10452;SDS011;5274;51.992;8.518;2023-04-21T05:15:58;51.00;;;46.05;;
10452;SDS011;5274;51.992;8.518;2023-04-21T05:18:25;53.38;;;48.40;;
10452;SDS011;5274;51.992;8.518;2023-04-21T05:20:51;54.53;;;49.40;;
10452;SDS011;5274;51.992;8.518;2023-04-21T05:23:18;50.08;;;45.33;;
10452;SDS011;5274;51.992;8.518;2023-04-21T05:25:44;53.20;;;48.22;;
10452;SDS011;5274;51.992;8.518;2023-04-21T05:28:10;54.35;;;49.22;;
10452;SDS011;5274;51.992;8.518;2023-04-21T05:30:36;57.25;;;52.03;;
10452;SDS011;5274;51.992;8.518;2023-04-21T05:33:02;57.03;;;51.63;;
10452;SDS011;5274;51.992;8.518;2023-04-21T05:35:31;55.97;;;51.03;;
10452;SDS011;5274;51.992;8.518;2023-04-21T05:37:57;56.95;;;51.88;;
10452;SDS011;5274;51.992;8.518;2023-04-21T05:40:23;55.97;;;50.65;;
10452;SDS011;5274;51.992;8.518;2023-04-21T05:42:49;58.63;;;52.97;;
10452;SDS011;5274;51.992;8.518;2023-04-21T05:45:15;55.97;;;50.65;;
10452;SDS011;5274;51.992;8.518;2023-04-21T05:47:41;57.83;;;52.13;;
10452;SDS011;5274;51.992;8.518;2023-04-21T05:50:07;53.80;;;49.00;;
10452;SDS011;5274;51.992;8.518;2023-04-21T05:52:34;54.42;;;49.67;;
10452;SDS011;5274;51.992;8.518;2023-04-21T05:55:01;55.95;;;51.20;;
10452;SDS011;5274;51.992;8.518;2023-04-21T05:57:27;55.35;;;50.70;;
10452;SDS011;5274;51.992;8.518;2023-04-21T05:59:53;54.83;;;50.25;;
10452;SDS011;5274;51.992;8.518;2023-04-21T06:02:19;52.03;;;47.25;;
10452;SDS011;5274;51.992;8.518;2023-04-21T06:04:45;48.42;;;44.05;;
10452;SDS011;5274;51.992;8.518;2023-04-21T06:07:11;51.88;;;47.25;;
10452;SDS011;5274;51.992;8.518;2023-04-21T06:09:38;51.65;;;47.40;;
10452;SDS011;5274;51.992;8.518;2023-04-21T06:12:04;53.80;;;48.97;;
10452;SDS011;5274;51.992;8.518;2023-04-21T06:14:30;54.58;;;50.03;;
10452;SDS011;5274;51.992;8.518;2023-04-21T06:16:56;52.20;;;47.78;;
10452;SDS011;5274;51.992;8.518;2023-04-21T06:19:22;59.25;;;53.45;;
10452;SDS011;5274;51.992;8.518;2023-04-21T06:21:48;56.95;;;51.95;;
10452;SDS011;5274;51.992;8.518;2023-04-21T06:24:15;54.80;;;49.90;;
10452;SDS011;5274;51.992;8.518;2023-04-21T06:26:41;54.83;;;50.22;;
10452;SDS011;5274;51.992;8.518;2023-04-21T06:29:07;54.10;;;49.60;;
10452;SDS011;5274;51.992;8.518;2023-04-21T06:31:33;54.90;;;50.17;;
10452;SDS011;5274;51.992;8.518;2023-04-21T06:33:58;56.20;;;50.75;;
10452;SDS011;5274;51.992;8.518;2023-04-21T06:36:24;54.42;;;49.83;;
10452;SDS011;5274;51.992;8.518;2023-04-21T06:38:51;55.60;;;50.60;;
10452;SDS011;5274;51.992;8.518;2023-04-21T06:41:17;54.55;;;49.92;;
10452;SDS011;5274;51.992;8.518;2023-04-21T06:43:43;55.17;;;50.28;;
10452;SDS011;5274;51.992;8.518;2023-04-21T06:46:09;56.38;;;51.75;;
10452;SDS011;5274;51.992;8.518;2023-04-21T06:48:35;55.70;;;50.90;;
10452;SDS011;5274;51.992;8.518;2023-04-21T06:51:01;55.92;;;51.17;;
10452;SDS011;5274;51.992;8.518;2023-04-21T06:53:27;58.78;;;53.60;;
10452;SDS011;5274;51.992;8.518;2023-04-21T06:55:53;56.38;;;51.70;;
10452;SDS011;5274;51.992;8.518;2023-04-21T06:58:18;55.78;;;51.20;;
10452;SDS011;5274;51.992;8.518;2023-04-21T07:00:45;55.35;;;50.55;;
10452;SDS011;5274;51.992;8.518;2023-04-21T07:03:11;56.33;;;51.22;;
10452;SDS011;5274;51.992;8.518;2023-04-21T07:05:37;54.75;;;50.40;;
10452;SDS011;5274;51.992;8.518;2023-04-21T07:08:03;58.35;;;53.45;;
10452;SDS011;5274;51.992;8.518;2023-04-21T07:10:28;56.88;;;52.13;;
10452;SDS011;5274;51.992;8.518;2023-04-21T07:12:55;57.15;;;52.50;;
10452;SDS011;5274;51.992;8.518;2023-04-21T07:15:21;57.88;;;53.08;;
10452;SDS011;5274;51.992;8.518;2023-04-21T07:17:47;58.28;;;53.00;;
10452;SDS011;5274;51.992;8.518;2023-04-21T07:20:13;56.42;;;51.67;;
10452;SDS011;5274;51.992;8.518;2023-04-21T07:22:41;55.80;;;51.13;;
10452;SDS011;5274;51.992;8.518;2023-04-21T07:25:07;57.03;;;52.20;;
10452;SDS011;5274;51.992;8.518;2023-04-21T07:27:33;55.17;;;50.70;;
10452;SDS011;5274;51.992;8.518;2023-04-21T07:30:05;58.33;;;53.33;;
10452;SDS011;5274;51.992;8.518;2023-04-21T07:32:31;57.97;;;53.28;;
10452;SDS011;5274;51.992;8.518;2023-04-21T07:34:57;57.35;;;52.72;;
10452;SDS011;5274;51.992;8.518;2023-04-21T07:37:25;57.80;;;53.17;;
10452;SDS011;5274;51.992;8.518;2023-04-21T07:39:51;58.40;;;53.15;;
10452;SDS011;5274;51.992;8.518;2023-04-21T07:42:17;59.25;;;54.63;;
10452;SDS011;5274;51.992;8.518;2023-04-21T07:44:43;43.58;;;40.00;;
10452;SDS011;5274;51.992;8.518;2023-04-21T07:47:09;45.85;;;41.97;;
10452;SDS011;5274;51.992;8.518;2023-04-21T07:49:35;44.58;;;40.92;;
10452;SDS011;5274;51.992;8.518;2023-04-21T07:52:01;43.22;;;39.83;;
10452;SDS011;5274;51.992;8.518;2023-04-21T07:54:27;41.75;;;38.55;;
10452;SDS011;5274;51.992;8.518;2023-04-21T07:56:53;39.60;;;36.38;;
10452;SDS011;5274;51.992;8.518;2023-04-21T07:59:19;43.78;;;40.38;;
10452;SDS011;5274;51.992;8.518;2023-04-21T08:01:45;37.70;;;34.30;;
10452;SDS011;5274;51.992;8.518;2023-04-21T08:04:11;37.78;;;34.70;;
10452;SDS011;5274;51.992;8.518;2023-04-21T08:06:37;44.85;;;41.33;;
10452;SDS011;5274;51.992;8.518;2023-04-21T08:09:02;44.80;;;41.03;;
10452;SDS011;5274;51.992;8.518;2023-04-21T08:11:28;45.53;;;41.80;;
10452;SDS011;5274;51.992;8.518;2023-04-21T08:13:54;44.15;;;40.70;;
10452;SDS011;5274;51.992;8.518;2023-04-21T08:16:21;44.13;;;40.58;;
10452;SDS011;5274;51.992;8.518;2023-04-21T08:18:47;43.70;;;40.03;;
10452;SDS011;5274;51.992;8.518;2023-04-21T08:21:13;41.08;;;37.33;;
10452;SDS011;5274;51.992;8.518;2023-04-21T08:23:39;44.13;;;40.55;;
10452;SDS011;5274;51.992;8.518;2023-04-21T08:26:05;42.78;;;39.35;;
10452;SDS011;5274;51.992;8.518;2023-04-21T08:28:31;44.90;;;41.13;;
10452;SDS011;5274;51.992;8.518;2023-04-21T08:30:57;44.10;;;40.60;;
10452;SDS011;5274;51.992;8.518;2023-04-21T08:33:24;43.92;;;40.72;;
10452;SDS011;5274;51.992;8.518;2023-04-21T08:35:50;40.90;;;37.70;;
10452;SDS011;5274;51.992;8.518;2023-04-21T08:38:16;40.40;;;37.05;;
10452;SDS011;5274;51.992;8.518;2023-04-21T08:40:42;44.08;;;40.72;;
10452;SDS011;5274;51.992;8.518;2023-04-21T08:43:08;44.58;;;40.97;;
10452;SDS011;5274;51.992;8.518;2023-04-21T08:45:34;44.13;;;40.70;;
10452;SDS011;5274;51.992;8.518;2023-04-21T08:48:01;47.70;;;44.10;;
10452;SDS011;5274;51.992;8.518;2023-04-21T08:50:29;45.20;;;41.55;;
10452;SDS011;5274;51.992;8.518;2023-04-21T08:52:55;44.22;;;40.67;;
10452;SDS011;5274;51.992;8.518;2023-04-21T08:55:24;45.53;;;42.22;;
10452;SDS011;5274;51.992;8.518;2023-04-21T08:57:51;46.50;;;42.63;;
10452;SDS011;5274;51.992;8.518;2023-04-21T09:00:17;44.78;;;40.97;;
10452;SDS011;5274;51.992;8.518;2023-04-21T09:02:56;42.78;;;39.25;;
10452;SDS011;5274;51.992;8.518;2023-04-21T09:05:26;40.42;;;37.03;;
10452;SDS011;5274;51.992;8.518;2023-04-21T09:08:08;41.60;;;38.20;;
10452;SDS011;5274;51.992;8.518;2023-04-21T09:10:44;41.40;;;38.20;;
10452;SDS011;5274;51.992;8.518;2023-04-21T09:13:10;42.92;;;39.85;;
10452;SDS011;5274;51.992;8.518;2023-04-21T09:15:43;39.15;;;36.13;;
10452;SDS011;5274;51.992;8.518;2023-04-21T09:18:14;39.33;;;36.08;;
10452;SDS011;5274;51.992;8.518;2023-04-21T09:20:40;40.72;;;37.72;;
10452;SDS011;5274;51.992;8.518;2023-04-21T09:23:08;43.80;;;40.70;;
10452;SDS011;5274;51.992;8.518;2023-04-21T09:25:36;44.13;;;40.88;;
10452;SDS011;5274;51.992;8.518;2023-04-21T09:28:02;41.47;;;37.97;;
10452;SDS011;5274;51.992;8.518;2023-04-21T09:30:33;40.50;;;37.47;;
10452;SDS011;5274;51.992;8.518;2023-04-21T09:33:00;57.55;;;53.20;;
10452;SDS011;5274;51.992;8.518;2023-04-21T09:35:32;56.13;;;51.53;;
10452;SDS011;5274;51.992;8.518;2023-04-21T09:37:59;55.53;;;51.08;;
10452;SDS011;5274;51.992;8.518;2023-04-21T09:40:26;56.67;;;52.05;;
10452;SDS011;5274;51.992;8.518;2023-04-21T09:42:52;56.40;;;51.95;;
10452;SDS011;5274;51.992;8.518;2023-04-21T09:45:18;56.67;;;51.88;;
10452;SDS011;5274;51.992;8.518;2023-04-21T09:47:48;55.75;;;51.65;;
10452;SDS011;5274;51.992;8.518;2023-04-21T09:50:15;55.60;;;51.22;;
10452;SDS011;5274;51.992;8.518;2023-04-21T09:52:42;55.95;;;51.70;;
10452;SDS011;5274;51.992;8.518;2023-04-21T09:55:12;57.13;;;52.67;;
10452;SDS011;5274;51.992;8.518;2023-04-21T09:57:38;56.40;;;51.90;;
10452;SDS011;5274;51.992;8.518;2023-04-21T10:00:06;56.78;;;52.13;;
10452;SDS011;5274;51.992;8.518;2023-04-21T10:02:33;55.85;;;51.60;;
10452;SDS011;5274;51.992;8.518;2023-04-21T10:04:59;54.30;;;49.75;;
10452;SDS011;5274;51.992;8.518;2023-04-21T10:07:25;57.00;;;52.03;;
10452;SDS011;5274;51.992;8.518;2023-04-21T10:09:53;52.97;;;48.88;;
10452;SDS011;5274;51.992;8.518;2023-04-21T10:12:19;55.20;;;50.90;;
10452;SDS011;5274;51.992;8.518;2023-04-21T10:14:49;55.33;;;51.03;;
10452;SDS011;5274;51.992;8.518;2023-04-21T10:17:16;51.55;;;47.38;;
10452;SDS011;5274;51.992;8.518;2023-04-21T10:19:54;51.28;;;47.20;;
10452;SDS011;5274;51.992;8.518;2023-04-21T10:22:27;53.70;;;49.83;;
10452;SDS011;5274;51.992;8.518;2023-04-21T10:24:54;54.03;;;49.88;;
10452;SDS011;5274;51.992;8.518;2023-04-21T10:27:34;55.35;;;51.15;;
10452;SDS011;5274;51.992;8.518;2023-04-21T10:30:01;55.78;;;51.67;;
10452;SDS011;5274;51.992;8.518;2023-04-21T10:32:42;54.90;;;50.47;;
10452;SDS011;5274;51.992;8.518;2023-04-21T10:35:12;54.58;;;50.17;;
10452;SDS011;5274;51.992;8.518;2023-04-21T10:37:39;55.15;;;51.03;;
10452;SDS011;5274;51.992;8.518;2023-04-21T10:40:07;56.33;;;52.05;;
10452;SDS011;5274;51.992;8.518;2023-04-21T10:42:52;55.30;;;50.95;;
10452;SDS011;5274;51.992;8.518;2023-04-21T10:45:18;54.35;;;50.25;;
10452;SDS011;5274;51.992;8.518;2023-04-21T10:47:44;55.85;;;51.55;;
10452;SDS011;5274;51.992;8.518;2023-04-21T10:50:33;55.17;;;50.33;;
10452;SDS011;5274;51.992;8.518;2023-04-21T10:53:11;54.05;;;49.95;;
10452;SDS011;5274;51.992;8.518;2023-04-21T10:55:37;54.28;;;50.25;;
10452;SDS011;5274;51.992;8.518;2023-04-21T10:58:06;51.50;;;47.70;;
10452;SDS011;5274;51.992;8.518;2023-04-21T11:00:35;52.05;;;48.05;;
10452;SDS011;5274;51.992;8.518;2023-04-21T11:03:03;55.25;;;51.05;;
10452;SDS011;5274;51.992;8.518;2023-04-21T11:05:30;52.42;;;48.08;;
10452;SDS011;5274;51.992;8.518;2023-04-21T11:08:08;52.42;;;47.95;;
10452;SDS011;5274;51.992;8.518;2023-04-21T11:10:45;54.47;;;50.47;;
10452;SDS011;5274;51.992;8.518;2023-04-21T11:13:11;54.20;;;49.90;;
10452;SDS011;5274;51.992;8.518;2023-04-21T11:15:37;54.30;;;50.00;;
10452;SDS011;5274;51.992;8.518;2023-04-21T11:18:04;51.08;;;47.28;;
10452;SDS011;5274;51.992;8.518;2023-04-21T11:20:32;51.30;;;47.20;;
10452;SDS011;5274;51.992;8.518;2023-04-21T11:22:58;50.88;;;47.08;;
10452;SDS011;5274;51.992;8.518;2023-04-21T11:25:24;52.15;;;48.40;;
10452;SDS011;5274;51.992;8.518;2023-04-21T11:27:54;55.08;;;50.88;;
10452;SDS011;5274;51.992;8.518;2023-04-21T11:30:20;54.85;;;50.70;;
10452;SDS011;5274;51.992;8.518;2023-04-21T11:32:52;53.92;;;49.92;;
10452;SDS011;5274;51.992;8.518;2023-04-21T11:35:18;50.90;;;47.28;;
10452;SDS011;5274;51.992;8.518;2023-04-21T11:37:44;50.90;;;47.30;;
10452;SDS011;5274;51.992;8.518;2023-04-21T11:40:11;54.33;;;50.38;;
10452;SDS011;5274;51.992;8.518;2023-04-21T11:42:37;55.47;;;51.38;;
10452;SDS011;5274;51.992;8.518;2023-04-21T11:45:03;56.22;;;52.13;;
10452;SDS011;5274;51.992;8.518;2023-04-21T11:47:29;57.08;;;52.75;;
10452;SDS011;5274;51.992;8.518;2023-04-21T11:49:59;56.67;;;52.47;;
10452;SDS011;5274;51.992;8.518;2023-04-21T11:52:30;55.55;;;51.33;;
10452;SDS011;5274;51.992;8.518;2023-04-21T11:55:04;55.20;;;51.20;;
10452;SDS011;5274;51.992;8.518;2023-04-21T11:57:31;56.05;;;51.85;;
10452;SDS011;5274;51.992;8.518;2023-04-21T11:59:57;54.13;;;50.30;;
10452;SDS011;5274;51.992;8.518;2023-04-21T12:02:24;52.97;;;48.88;;
10452;SDS011;5274;51.992;8.518;2023-04-21T12:07:22;55.85;;;51.63;;
10452;SDS011;5274;51.992;8.518;2023-04-21T12:09:52;55.10;;;51.13;;
10452;SDS011;5274;51.992;8.518;2023-04-21T12:12:18;53.42;;;49.72;;
10452;SDS011;5274;51.992;8.518;2023-04-21T12:14:44;55.45;;;51.42;;
10452;SDS011;5274;51.992;8.518;2023-04-21T12:17:10;55.05;;;50.83;;
10452;SDS011;5274;51.992;8.518;2023-04-21T12:19:37;52.75;;;49.22;;
10452;SDS011;5274;51.992;8.518;2023-04-21T12:22:07;50.67;;;47.17;;
10452;SDS011;5274;51.992;8.518;2023-04-21T12:24:33;50.83;;;47.33;;
10452;SDS011;5274;51.992;8.518;2023-04-21T12:26:59;50.25;;;46.35;;
10452;SDS011;5274;51.992;8.518;2023-04-21T12:29:26;50.40;;;46.90;;
10452;SDS011;5274;51.992;8.518;2023-04-21T12:31:52;47.53;;;44.42;;
10452;SDS011;5274;51.992;8.518;2023-04-21T12:34:18;49.25;;;45.70;;
10452;SDS011;5274;51.992;8.518;2023-04-21T12:36:44;49.90;;;46.30;;
10452;SDS011;5274;51.992;8.518;2023-04-21T12:39:10;49.50;;;46.03;;
10452;SDS011;5274;51.992;8.518;2023-04-21T12:41:37;48.95;;;45.60;;
10452;SDS011;5274;51.992;8.518;2023-04-21T12:44:03;51.03;;;47.47;;
10452;SDS011;5274;51.992;8.518;2023-04-21T12:46:29;51.65;;;48.20;;
10452;SDS011;5274;51.992;8.518;2023-04-21T12:48:55;51.88;;;48.17;;
10452;SDS011;5274;51.992;8.518;2023-04-21T12:51:21;51.72;;;47.97;;
10452;SDS011;5274;51.992;8.518;2023-04-21T12:53:46;52.38;;;48.67;;
10452;SDS011;5274;51.992;8.518;2023-04-21T12:56:12;52.78;;;49.08;;
10452;SDS011;5274;51.992;8.518;2023-04-21T12:58:38;53.35;;;49.70;;
10452;SDS011;5274;51.992;8.518;2023-04-21T13:01:06;53.10;;;49.38;;
10452;SDS011;5274;51.992;8.518;2023-04-21T13:03:32;53.45;;;49.40;;
10452;SDS011;5274;51.992;8.518;2023-04-21T13:05:58;52.53;;;48.92;;
10452;SDS011;5274;51.992;8.518;2023-04-21T13:08:24;50.78;;;47.38;;
10452;SDS011;5274;51.992;8.518;2023-04-21T13:10:50;50.78;;;46.92;;
10452;SDS011;5274;51.992;8.518;2023-04-21T13:13:16;51.13;;;47.72;;
10452;SDS011;5274;51.992;8.518;2023-04-21T13:15:42;51.92;;;48.42;;
10452;SDS011;5274;51.992;8.518;2023-04-21T13:18:07;51.50;;;48.03;;
10452;SDS011;5274;51.992;8.518;2023-04-21T13:20:33;53.13;;;48.10;;
10452;SDS011;5274;51.992;8.518;2023-04-21T13:23:00;51.50;;;48.00;;
10452;SDS011;5274;51.992;8.518;2023-04-21T13:25:25;53.33;;;49.63;;
10452;SDS011;5274;51.992;8.518;2023-04-21T13:27:51;51.55;;;47.95;;
10452;SDS011;5274;51.992;8.518;2023-04-21T13:30:17;43.80;;;40.90;;
10452;SDS011;5274;51.992;8.518;2023-04-21T13:32:43;51.85;;;48.15;;
10452;SDS011;5274;51.992;8.518;2023-04-21T13:35:09;52.67;;;48.38;;
10452;SDS011;5274;51.992;8.518;2023-04-21T13:37:38;54.15;;;50.15;;
10452;SDS011;5274;51.992;8.518;2023-04-21T13:40:05;54.75;;;50.92;;
10452;SDS011;5274;51.992;8.518;2023-04-21T13:42:32;53.78;;;50.08;;
10452;SDS011;5274;51.992;8.518;2023-04-21T13:44:58;54.13;;;50.08;;
10452;SDS011;5274;51.992;8.518;2023-04-21T13:47:27;56.38;;;52.33;;
10452;SDS011;5274;51.992;8.518;2023-04-21T13:49:53;55.10;;;51.17;;
10452;SDS011;5274;51.992;8.518;2023-04-21T13:52:19;55.33;;;51.20;;
10452;SDS011;5274;51.992;8.518;2023-04-21T13:54:45;56.95;;;52.80;;
10452;SDS011;5274;51.992;8.518;2023-04-21T13:57:11;57.88;;;53.65;;
10452;SDS011;5274;51.992;8.518;2023-04-21T13:59:37;56.88;;;52.95;;
10452;SDS011;5274;51.992;8.518;2023-04-21T14:02:03;57.33;;;53.22;;
10452;SDS011;5274;51.992;8.518;2023-04-21T14:04:29;54.85;;;50.72;;
10452;SDS011;5274;51.992;8.518;2023-04-21T14:06:54;55.00;;;50.85;;
10452;SDS011;5274;51.992;8.518;2023-04-21T14:09:20;55.03;;;51.15;;
10452;SDS011;5274;51.992;8.518;2023-04-21T14:11:46;54.97;;;51.08;;
10452;SDS011;5274;51.992;8.518;2023-04-21T14:14:12;50.55;;;46.92;;
10452;SDS011;5274;51.992;8.518;2023-04-21T14:16:38;53.20;;;49.50;;
10452;SDS011;5274;51.992;8.518;2023-04-21T14:19:04;50.45;;;46.95;;
10452;SDS011;5274;51.992;8.518;2023-04-21T14:21:30;50.67;;;47.00;;
10452;SDS011;5274;51.992;8.518;2023-04-21T14:23:56;51.92;;;47.85;;
10452;SDS011;5274;51.992;8.518;2023-04-21T14:26:22;49.67;;;45.97;;
10452;SDS011;5274;51.992;8.518;2023-04-21T14:28:48;49.42;;;45.97;;
10452;SDS011;5274;51.992;8.518;2023-04-21T14:31:15;52.55;;;48.33;;
10452;SDS011;5274;51.992;8.518;2023-04-21T14:33:41;50.15;;;46.65;;